createdAt,value
2023-01-19T00:01:33.961Z,96979.81
2023-01-19T00:04:02.302Z,96989.16
2023-01-19T00:06:30.489Z,96997.28
2023-01-19T00:08:58.734Z,97000.75
2023-01-19T00:11:26.673Z,97002.97
2023-01-19T00:13:54.728Z,97005.00
2023-01-19T00:16:23.314Z,97006.03
2023-01-19T00:18:53.476Z,97004.00
2023-01-19T00:21:22.441Z,97000.75
2023-01-19T00:23:52.536Z,96998.72
2023-01-19T00:26:22.610Z,96999.94
2023-01-19T00:28:53.013Z,96998.50
2023-01-19T00:31:22.097Z,97001.56
2023-01-19T00:33:53.192Z,96999.72
2023-01-19T00:36:23.253Z,96992.81
2023-01-19T00:38:51.212Z,97000.53
2023-01-19T00:41:19.884Z,97006.84
2023-01-19T00:43:47.789Z,97008.47
2023-01-19T00:46:15.675Z,97013.53
2023-01-19T00:48:43.938Z,97010.09
2023-01-19T00:51:11.781Z,97016.38
2023-01-19T00:53:41.062Z,97020.66
2023-01-19T00:56:09.783Z,97015.38
2023-01-19T00:58:37.895Z,97013.94
2023-01-19T01:01:07.197Z,97008.25
2023-01-19T01:03:35.564Z,97020.44
2023-01-19T01:06:03.760Z,97022.88
2023-01-19T01:08:32.508Z,97016.78
2023-01-19T01:11:02.375Z,97015.78
2023-01-19T01:13:31.165Z,97019.03
2023-01-19T01:15:59.942Z,97013.53
2023-01-19T01:18:28.110Z,97017.59
2023-01-19T01:21:03.075Z,97013.94
2023-01-19T01:23:30.957Z,97022.47
2023-01-19T01:25:59.072Z,97022.47
2023-01-19T01:28:28.710Z,97026.75
2023-01-19T01:30:57.758Z,97023.91
2023-01-19T01:33:41.128Z,97020.81
2023-01-19T01:36:10.992Z,97020.66
2023-01-19T01:38:39.250Z,97022.28
2023-01-19T01:41:07.528Z,97016.78
2023-01-19T01:43:49.728Z,97017.81
2023-01-19T01:46:19.969Z,97020.84
2023-01-19T01:48:54.554Z,97019.22
2023-01-19T01:51:27.255Z,97031.63
2023-01-19T01:54:12.218Z,97019.22
2023-01-19T01:56:42.907Z,97024.72
2023-01-19T01:59:26.198Z,97032.63
2023-01-19T02:02:13.488Z,97026.75
2023-01-19T02:04:45.108Z,97029.19
2023-01-19T02:07:35.768Z,97032.44
2023-01-19T02:10:21.753Z,97026.53
2023-01-19T02:13:07.659Z,97019.22
2023-01-19T02:15:37.370Z,97028.78
2023-01-19T02:18:05.533Z,97020.03
2023-01-19T02:20:37.637Z,97025.53
2023-01-19T02:23:14.405Z,97022.28
2023-01-19T02:25:44.114Z,97023.09
2023-01-19T02:28:12.872Z,97023.09
2023-01-19T02:30:42.716Z,97025.72
2023-01-19T02:33:11.142Z,97023.69
2023-01-19T02:35:41.457Z,97026.94
2023-01-19T02:38:10.602Z,97036.28
2023-01-19T02:40:41.043Z,97032.84
2023-01-19T02:43:11.674Z,97029.38
2023-01-19T02:45:40.884Z,97028.97
2023-01-19T02:48:09.287Z,97033.63
2023-01-19T02:50:49.526Z,97035.44
2023-01-19T02:53:40.004Z,97037.47
2023-01-19T02:56:46.853Z,97034.03
2023-01-19T02:59:30.053Z,97038.91
2023-01-19T03:02:16.577Z,97041.53
2023-01-19T03:04:59.490Z,97036.63
2023-01-19T03:07:37.121Z,97034.00
2023-01-19T03:10:08.486Z,97033.38
2023-01-19T03:12:44.685Z,97034.41
2023-01-19T03:15:20.583Z,97039.69
2023-01-19T03:17:51.845Z,97037.25
2023-01-19T03:20:24.892Z,97038.25
2023-01-19T03:23:00.659Z,97035.19
2023-01-19T03:25:33.204Z,97038.63
2023-01-19T03:28:02.765Z,97050.41
2023-01-19T03:30:36.319Z,97036.59
2023-01-19T03:33:11.287Z,97043.88
2023-01-19T03:35:43.477Z,97045.72
2023-01-19T03:38:18.069Z,97054.03
2023-01-19T03:40:48.643Z,97052.59
2023-01-19T03:43:19.187Z,97052.19
2023-01-19T03:45:49.259Z,97050.34
2023-01-19T03:48:18.501Z,97050.56
2023-01-19T03:50:46.723Z,97061.72
2023-01-19T03:53:17.157Z,97056.22
2023-01-19T03:55:48.695Z,97056.81
2023-01-19T03:58:16.658Z,97058.84
2023-01-19T04:00:44.806Z,97062.47
2023-01-19T04:03:16.972Z,97058.78
2023-01-19T04:05:46.213Z,97057.59
2023-01-19T04:08:14.773Z,97063.47
2023-01-19T04:10:42.893Z,97060.66
2023-01-19T04:13:10.735Z,97056.16
2023-01-19T04:15:39.029Z,97056.22
2023-01-19T04:18:07.382Z,97063.09
2023-01-19T04:20:36.632Z,97067.56
2023-01-19T04:23:05.360Z,97064.88
2023-01-19T04:25:33.416Z,97060.44
2023-01-19T04:28:01.279Z,97066.50
2023-01-19T04:30:30.036Z,97060.63
2023-01-19T04:33:01.008Z,97070.97
2023-01-19T04:35:29.133Z,97062.25
2023-01-19T04:37:58.337Z,97067.53
2023-01-19T04:40:26.626Z,97077.47
2023-01-19T04:42:55.545Z,97068.94
2023-01-19T04:45:23.484Z,97066.78
2023-01-19T04:47:53.075Z,97075.06
2023-01-19T04:50:21.354Z,97078.47
2023-01-19T04:52:49.628Z,97084.13
2023-01-19T04:55:20.037Z,97084.13
2023-01-19T04:57:47.870Z,97087.56
2023-01-19T05:00:16.766Z,97075.41
2023-01-19T05:02:45.861Z,97084.13
2023-01-19T05:05:14.115Z,97084.94
2023-01-19T05:07:42.016Z,97086.75
2023-01-19T05:10:11.581Z,97090.00
2023-01-19T05:12:42.109Z,97081.53
2023-01-19T05:15:11.773Z,97083.53
2023-01-19T05:17:39.769Z,97083.94
2023-01-19T05:20:10.962Z,97084.13
2023-01-19T05:22:40.818Z,97086.97
2023-01-19T05:25:10.066Z,97090.41
2023-01-19T05:27:39.117Z,97088.59
2023-01-19T05:30:09.983Z,97097.09
2023-01-19T05:32:38.230Z,97096.69
2023-01-19T05:35:06.818Z,97095.69
2023-01-19T05:37:34.722Z,97095.88
2023-01-19T05:40:02.633Z,97103.34
2023-01-19T05:42:32.711Z,97102.53
2023-01-19T05:45:01.269Z,97101.72
2023-01-19T05:47:32.108Z,97102.53
2023-01-19T05:49:59.960Z,97105.19
2023-01-19T05:52:28.058Z,97101.91
2023-01-19T05:54:56.523Z,97110.22
2023-01-19T05:57:24.986Z,97106.16
2023-01-19T05:59:52.860Z,97112.41
2023-01-19T06:02:21.229Z,97112.75
2023-01-19T06:04:50.462Z,97117.03
2023-01-19T06:07:18.522Z,97122.06
2023-01-19T06:09:46.664Z,97123.53
2023-01-19T06:12:14.553Z,97123.13
2023-01-19T06:14:42.547Z,97126.56
2023-01-19T06:17:10.815Z,97119.03
2023-01-19T06:19:38.682Z,97127.56
2023-01-19T06:22:07.885Z,97126.81
2023-01-19T06:24:35.777Z,97134.13
2023-01-19T06:27:04.015Z,97133.94
2023-01-19T06:29:32.328Z,97142.84
2023-01-19T06:32:00.271Z,97139.41
2023-01-19T06:34:29.147Z,97141.41
2023-01-19T06:36:57.819Z,97150.75
2023-01-19T06:39:27.470Z,97133.31
2023-01-19T06:41:55.378Z,97133.69
2023-01-19T06:44:23.584Z,97138.59
2023-01-19T06:46:51.429Z,97145.50
2023-01-19T06:49:39.492Z,97147.13
2023-01-19T06:52:07.835Z,97153.16
2023-01-19T06:54:37.034Z,97149.94
2023-01-19T06:57:06.316Z,97150.97
2023-01-19T06:59:34.213Z,97157.63
2023-01-19T07:02:26.586Z,97158.06
2023-01-19T07:04:50.340Z,97164.94
2023-01-19T07:07:18.173Z,97165.72
2023-01-19T07:09:47.433Z,97164.53
2023-01-19T07:12:16.342Z,97165.53
2023-01-19T07:14:44.693Z,97164.53
2023-01-19T07:17:13.946Z,97170.59
2023-01-19T07:19:41.828Z,97168.34
2023-01-19T07:22:09.760Z,97157.00
2023-01-19T07:24:38.192Z,97173.00
2023-01-19T07:27:08.347Z,97171.00
2023-01-19T07:29:36.185Z,97168.78
2023-01-19T07:32:05.131Z,97168.94
2023-01-19T07:34:35.982Z,97164.75
2023-01-19T07:37:04.899Z,97160.81
2023-01-19T07:39:32.758Z,97160.59
2023-01-19T07:42:00.592Z,97165.44
2023-01-19T07:44:30.614Z,97162.34
2023-01-19T07:47:00.224Z,97179.41
2023-01-19T07:49:28.094Z,97168.88
2023-01-19T07:51:56.389Z,97172.31
2023-01-19T07:54:24.429Z,97172.31
2023-01-19T07:56:54.892Z,97178.84
2023-01-19T07:59:23.066Z,97174.56
2023-01-19T08:01:54.145Z,97172.31
2023-01-19T08:04:22.812Z,97180.22
2023-01-19T08:06:50.770Z,97183.88
2023-01-19T08:09:19.385Z,97182.88
2023-01-19T08:11:47.700Z,97188.56
2023-01-19T08:14:15.628Z,97182.28
2023-01-19T08:16:43.616Z,97192.88
2023-01-19T08:19:13.352Z,97191.31
2023-01-19T08:21:41.258Z,97189.91
2023-01-19T08:24:20.080Z,97198.88
2023-01-19T08:26:48.465Z,97207.91
2023-01-19T08:29:16.689Z,97206.94
2023-01-19T08:31:45.330Z,97200.69
2023-01-19T08:34:14.782Z,97208.47
2023-01-19T08:36:42.635Z,97213.16
2023-01-19T08:39:12.232Z,97211.34
2023-01-19T08:41:40.469Z,97220.94
2023-01-19T08:44:08.337Z,97214.69
2023-01-19T08:46:36.767Z,97216.31
2023-01-19T08:49:04.848Z,97220.81
2023-01-19T08:51:34.146Z,97219.63
2023-01-19T08:54:02.816Z,97221.69
2023-01-19T08:56:31.633Z,97222.53
2023-01-19T09:01:47.856Z,97225.03
2023-01-19T09:04:15.958Z,97228.28
2023-01-19T09:06:45.706Z,97224.03
2023-01-19T09:09:13.569Z,97223.22
2023-01-19T09:11:42.489Z,97228.53
2023-01-19T09:14:10.779Z,97223.84
2023-01-19T09:16:39.053Z,97220.81
2023-01-19T09:19:08.596Z,97218.78
2023-01-19T09:21:37.072Z,97227.53
2023-01-19T09:24:07.064Z,97223.09
2023-01-19T09:26:36.953Z,97218.63
2023-01-19T09:29:04.898Z,97223.94
2023-01-19T09:31:33.133Z,97226.78
2023-01-19T09:34:01.020Z,97227.41
2023-01-19T09:36:30.142Z,97225.56
2023-01-19T09:38:58.057Z,97230.25
2023-01-19T09:41:28.141Z,97230.88
2023-01-19T09:43:59.033Z,97228.41
2023-01-19T09:46:35.408Z,97223.13
2023-01-19T09:49:08.069Z,97232.88
2023-01-19T09:51:39.140Z,97215.59
2023-01-19T09:54:14.125Z,97228.19
2023-01-19T09:56:44.758Z,97230.84
2023-01-19T09:59:21.955Z,97231.47
2023-01-19T10:02:05.515Z,97229.84
2023-01-19T10:04:37.791Z,97228.41
2023-01-19T10:07:15.899Z,97225.56
2023-01-19T10:10:15.535Z,97230.84
2023-01-19T10:12:56.321Z,97216.81
2023-01-19T10:15:34.015Z,97225.75
2023-01-19T10:18:15.606Z,97226.56
2023-01-19T10:20:47.410Z,97225.53
2023-01-19T10:23:27.167Z,97231.44
2023-01-19T10:25:56.568Z,97223.91
2023-01-19T10:28:28.299Z,97228.38
2023-01-19T10:30:57.523Z,97230.59
2023-01-19T10:33:26.079Z,97225.28
2023-01-19T10:35:53.985Z,97220.75
2023-01-19T10:38:22.414Z,97223.59
2023-01-19T10:41:00.697Z,97216.44
2023-01-19T10:43:41.615Z,97213.59
2023-01-19T10:46:21.532Z,97214.19
2023-01-19T10:48:51.862Z,97218.03
2023-01-19T10:51:22.482Z,97224.94
2023-01-19T10:54:01.083Z,97219.44
2023-01-19T10:56:33.340Z,97218.63
2023-01-19T10:59:04.908Z,97206.78
2023-01-19T11:01:37.349Z,97200.66
2023-01-19T11:04:28.658Z,97197.38
2023-01-19T11:07:14.933Z,97197.19
2023-01-19T11:09:42.834Z,97196.78
2023-01-19T11:12:19.982Z,97211.25
2023-01-19T11:14:53.514Z,97210.63
2023-01-19T11:17:25.277Z,97213.50
2023-01-19T11:20:02.071Z,97214.13
2023-01-19T11:22:33.502Z,97223.31
2023-01-19T11:25:04.398Z,97218.22
2023-01-19T11:27:38.026Z,97221.69
2023-01-19T11:30:17.216Z,97215.78
2023-01-19T11:32:45.761Z,97223.13
2023-01-19T11:35:34.171Z,97219.44
2023-01-19T11:38:17.196Z,97222.31
2023-01-19T11:40:56.805Z,97217.81
2023-01-19T11:43:43.487Z,97215.97
2023-01-19T11:46:18.774Z,97207.19
2023-01-19T11:48:57.045Z,97199.66
2023-01-19T11:51:29.179Z,97199.63
2023-01-19T11:53:57.186Z,97185.53
2023-01-19T11:56:29.977Z,97190.59
2023-01-19T11:58:58.957Z,97187.91
2023-01-19T12:01:34.229Z,97193.63
2023-01-19T12:04:05.861Z,97180.53
2023-01-19T12:06:36.973Z,97194.31
2023-01-19T12:09:14.060Z,97183.28
2023-01-19T12:11:47.578Z,97186.16
2023-01-19T12:14:20.710Z,97180.03
2023-01-19T12:16:53.074Z,97189.00
2023-01-19T12:19:26.770Z,97187.47
2023-01-19T12:21:55.225Z,97187.66
2023-01-19T12:24:31.939Z,97189.94
2023-01-19T12:27:02.243Z,97194.63
2023-01-19T12:29:35.280Z,97189.38
2023-01-19T12:32:19.669Z,97189.78
2023-01-19T12:34:48.932Z,97197.78
2023-01-19T12:37:45.346Z,97206.56
2023-01-19T12:40:25.325Z,97210.66
2023-01-19T12:43:00.336Z,97202.94
2023-01-19T12:45:33.996Z,97196.41
2023-01-19T12:48:05.303Z,97204.38
2023-01-19T12:50:38.055Z,97211.50
2023-01-19T12:53:17.621Z,97209.66
2023-01-19T12:55:47.122Z,97211.72
2023-01-19T12:58:18.723Z,97216.41
2023-01-19T13:00:48.570Z,97222.13
2023-01-19T13:03:47.496Z,97219.91
2023-01-19T13:06:15.697Z,97221.13
2023-01-19T13:09:01.604Z,97228.47
2023-01-19T13:11:34.369Z,97218.88
2023-01-19T13:14:34.842Z,97220.53
2023-01-19T13:17:19.492Z,97215.44
2023-01-19T13:20:42.749Z,97220.31
2023-01-19T13:23:26.689Z,97229.09
2023-01-19T13:26:04.272Z,97224.81
2023-01-19T13:28:39.933Z,97219.72
2023-01-19T13:31:10.111Z,97226.84
2023-01-19T13:33:50.096Z,97223.16
2023-01-19T13:36:26.839Z,97231.31
2023-01-19T13:38:56.908Z,97228.69
2023-01-19T13:41:28.364Z,97232.56
2023-01-19T13:44:02.332Z,97235.19
2023-01-19T13:46:33.555Z,97231.34
2023-01-19T13:49:05.602Z,97236.44
2023-01-19T13:51:34.835Z,97237.44
2023-01-19T13:54:02.859Z,97239.06
2023-01-19T13:56:31.155Z,97235.63
2023-01-19T13:59:00.436Z,97228.69
2023-01-19T14:01:30.448Z,97230.13
2023-01-19T14:03:59.368Z,97241.53
2023-01-19T14:06:40.038Z,97238.28
2023-01-19T14:09:19.598Z,97240.94
2023-01-19T14:12:05.226Z,97238.69
2023-01-19T14:14:33.560Z,97236.66
2023-01-19T14:17:01.568Z,97245.41
2023-01-19T14:19:29.651Z,97238.47
2023-01-19T14:22:03.793Z,97248.66
2023-01-19T14:24:33.355Z,97246.59
2023-01-19T14:27:25.334Z,97236.44
2023-01-19T14:29:55.022Z,97237.44
2023-01-19T14:32:25.769Z,97239.88
2023-01-19T14:35:13.053Z,97232.97
2023-01-19T14:37:50.448Z,97233.78
2023-01-19T14:40:21.835Z,97240.91
2023-01-19T14:42:54.311Z,97229.09
2023-01-19T14:45:25.302Z,97235.81
2023-01-19T14:48:00.032Z,97232.94
2023-01-19T14:50:31.372Z,97236.63
2023-01-19T14:53:03.775Z,97228.69
2023-01-19T14:55:36.504Z,97233.16
2023-01-19T14:58:11.752Z,97226.84
2023-01-19T15:00:40.296Z,97238.25
2023-01-19T15:03:10.028Z,97237.63
2023-01-19T15:05:38.956Z,97241.50
2023-01-19T15:08:09.494Z,97238.03
2023-01-19T15:10:38.102Z,97240.09
2023-01-19T15:13:06.706Z,97240.69
2023-01-19T15:15:36.424Z,97228.88
2023-01-19T15:18:06.366Z,97236.81
2023-01-19T15:20:34.214Z,97240.50
2023-01-19T15:23:02.061Z,97243.97
2023-01-19T15:25:31.764Z,97239.88
2023-01-19T15:28:00.574Z,97232.75
2023-01-19T15:30:31.384Z,97225.22
2023-01-19T15:32:59.272Z,97234.00
2023-01-19T15:35:27.624Z,97231.75
2023-01-19T15:37:56.140Z,97225.84
2023-01-19T15:40:24.738Z,97225.66
2023-01-19T15:42:53.987Z,97219.13
2023-01-19T15:45:34.391Z,97227.28
2023-01-19T15:48:09.012Z,97228.56
2023-01-19T15:50:38.916Z,97221.03
2023-01-19T15:53:07.387Z,97230.78
2023-01-19T15:55:35.358Z,97227.53
2023-01-19T15:58:05.493Z,97228.16
2023-01-19T16:00:35.025Z,97224.31
2023-01-19T16:03:04.358Z,97231.84
2023-01-19T16:05:43.807Z,97225.53
2023-01-19T16:08:12.865Z,97224.50
2023-01-19T16:10:42.615Z,97231.63
2023-01-19T16:13:14.990Z,97231.44
2023-01-19T16:15:43.611Z,97228.97
2023-01-19T16:18:11.539Z,97236.31
2023-01-19T16:20:40.091Z,97223.69
2023-01-19T16:23:16.095Z,97230.63
2023-01-19T16:25:44.555Z,97236.75
2023-01-19T16:28:13.914Z,97237.16
2023-01-19T16:30:41.937Z,97229.63
2023-01-19T16:33:11.735Z,97231.66
2023-01-19T16:35:40.479Z,97232.06
2023-01-19T16:38:09.518Z,97224.34
2023-01-19T16:40:38.253Z,97237.75
2023-01-19T16:43:06.781Z,97240.59
2023-01-19T16:45:36.421Z,97238.78
2023-01-19T16:48:05.061Z,97238.78
2023-01-19T16:50:33.648Z,97245.09
2023-01-19T16:53:01.787Z,97238.59
2023-01-19T16:55:29.617Z,97239.81
2023-01-19T16:57:59.657Z,97242.03
2023-01-19T17:00:27.985Z,97245.50
2023-01-19T17:02:57.592Z,97239.19
2023-01-19T17:05:26.097Z,97236.75
2023-01-19T17:07:54.287Z,97239.19
2023-01-19T17:10:22.712Z,97234.50
2023-01-19T17:12:51.060Z,97244.28
2023-01-19T17:15:18.996Z,97240.81
2023-01-19T17:17:47.037Z,97236.75
2023-01-19T17:20:17.749Z,97235.72
2023-01-19T17:22:45.833Z,97243.47
2023-01-19T17:25:13.802Z,97238.19
2023-01-19T17:27:42.473Z,97239.59
2023-01-19T17:30:12.033Z,97240.00
2023-01-19T17:32:42.668Z,97236.75
2023-01-19T17:35:13.304Z,97239.81
2023-01-19T17:37:43.175Z,97236.94
2023-01-19T17:40:12.575Z,97248.16
2023-01-19T17:42:42.063Z,97244.69
2023-01-19T17:45:11.573Z,97246.50
2023-01-19T17:47:40.385Z,97253.84
2023-01-19T17:50:09.134Z,97249.97
2023-01-19T17:52:38.486Z,97254.25
2023-01-19T17:55:10.280Z,97248.75
2023-01-19T17:57:39.077Z,97246.13
2023-01-19T18:00:12.722Z,97253.03
2023-01-19T18:02:41.316Z,97249.97
2023-01-19T18:05:12.652Z,97258.13
2023-01-19T18:07:41.239Z,97255.25
2023-01-19T18:10:12.923Z,97258.72
2023-01-19T18:12:43.586Z,97252.63
2023-01-19T18:15:16.708Z,97251.19
2023-01-19T18:17:45.422Z,97253.03
2023-01-19T18:20:15.095Z,97255.28
2023-01-19T18:22:43.523Z,97248.56
2023-01-19T18:25:14.180Z,97239.19
2023-01-19T18:27:42.451Z,97254.25
2023-01-19T18:30:11.952Z,97247.13
2023-01-19T18:32:41.142Z,97243.88
2023-01-19T18:35:10.512Z,97256.06
2023-01-19T18:37:38.766Z,97255.88
2023-01-19T18:40:08.702Z,97253.88
2023-01-19T18:42:38.570Z,97254.06
2023-01-19T18:45:08.128Z,97257.94
2023-01-19T18:47:36.150Z,97256.09
2023-01-19T18:50:06.436Z,97254.25
2023-01-19T18:52:34.658Z,97257.72
2023-01-19T18:55:03.031Z,97257.50
2023-01-19T18:57:31.906Z,97264.44
2023-01-19T19:00:01.584Z,97257.31
2023-01-19T19:02:29.528Z,97252.63
2023-01-19T19:04:58.044Z,97250.81
2023-01-19T19:07:26.398Z,97257.31
2023-01-19T19:09:54.396Z,97260.38
2023-01-19T19:12:23.886Z,97265.22
2023-01-19T19:14:52.057Z,97261.56
2023-01-19T19:17:22.136Z,97263.19
2023-01-19T19:19:50.732Z,97257.72
2023-01-19T19:22:18.758Z,97262.59
2023-01-19T19:24:47.146Z,97257.50
2023-01-19T19:27:16.369Z,97267.69
2023-01-19T19:29:50.487Z,97258.94
2023-01-19T19:32:20.935Z,97261.78
2023-01-19T19:34:52.698Z,97255.47
2023-01-19T19:37:21.954Z,97264.03
2023-01-19T19:39:50.004Z,97261.56
2023-01-19T19:42:19.269Z,97268.91
2023-01-19T19:44:48.857Z,97268.91
2023-01-19T19:47:16.899Z,97267.47
2023-01-19T19:49:45.433Z,97275.00
2023-01-19T19:52:14.784Z,97275.22
2023-01-19T19:54:42.669Z,97267.47
2023-01-19T19:57:12.764Z,97270.53
2023-01-19T19:59:40.801Z,97268.91
2023-01-19T20:02:10.956Z,97267.69
2023-01-19T20:04:39.178Z,97268.31
2023-01-19T20:07:07.095Z,97272.16
2023-01-19T20:09:37.416Z,97270.53
2023-01-19T20:12:05.691Z,97277.25
2023-01-19T20:14:33.846Z,97274.59
2023-01-19T20:17:02.175Z,97274.59
2023-01-19T20:19:32.537Z,97276.44
2023-01-19T20:22:00.621Z,97276.44
2023-01-19T20:24:30.561Z,97277.25
2023-01-19T20:27:00.132Z,97279.69
2023-01-19T20:29:28.343Z,97280.28
2023-01-19T20:31:57.278Z,97281.31
2023-01-19T20:34:28.172Z,97286.19
2023-01-19T20:36:57.137Z,97284.38
2023-01-19T20:39:26.209Z,97288.03
2023-01-19T20:41:54.351Z,97289.84
2023-01-19T20:44:26.190Z,97293.13
2023-01-19T20:46:56.016Z,97288.44
2023-01-19T20:49:24.171Z,97294.13
2023-01-19T20:51:52.797Z,97292.91
2023-01-19T20:54:24.407Z,97298.00
2023-01-19T20:56:52.387Z,97300.03
2023-01-19T20:59:20.916Z,97297.59
2023-01-19T21:01:51.097Z,97295.75
2023-01-19T21:04:20.525Z,97293.72
2023-01-19T21:06:48.933Z,97301.66
2023-01-19T21:09:18.604Z,97309.59
2023-01-19T21:11:46.761Z,97312.44
2023-01-19T21:14:15.340Z,97312.66
2023-01-19T21:16:43.581Z,97319.38
2023-01-19T21:19:13.812Z,97328.50
2023-01-19T21:21:42.011Z,97322.22
2023-01-19T21:24:11.746Z,97323.25
2023-01-19T21:26:41.935Z,97329.75
2023-01-19T21:29:13.475Z,97324.47
2023-01-19T21:31:41.823Z,97327.91
2023-01-19T21:34:10.497Z,97329.53
2023-01-19T21:36:40.385Z,97334.84
2023-01-19T21:39:09.499Z,97330.38
2023-01-19T21:41:39.810Z,97331.78
2023-01-19T21:44:07.715Z,97338.91
2023-01-19T21:46:36.336Z,97330.38
2023-01-19T21:49:06.336Z,97343.16
2023-01-19T21:51:37.773Z,97338.06
2023-01-19T21:54:08.060Z,97342.34
2023-01-19T21:56:38.020Z,97336.22
2023-01-19T21:59:06.354Z,97343.53
2023-01-19T22:01:35.130Z,97339.47
2023-01-19T22:04:04.009Z,97335.78
2023-01-19T22:06:32.275Z,97342.72
2023-01-19T22:09:00.779Z,97337.81
2023-01-19T22:11:30.814Z,97345.13
2023-01-19T22:13:59.831Z,97345.94
2023-01-19T22:16:28.467Z,97343.91
2023-01-19T22:18:59.963Z,97345.56
2023-01-19T22:21:30.119Z,97354.72
2023-01-19T22:24:00.541Z,97355.72
2023-01-19T22:26:32.132Z,97349.00
2023-01-19T22:29:02.714Z,97348.41
2023-01-19T22:31:32.150Z,97350.22
2023-01-19T22:34:00.457Z,97352.06
2023-01-19T22:36:30.699Z,97355.91
2023-01-19T22:39:00.746Z,97365.28
2023-01-19T22:41:32.176Z,97362.44
2023-01-19T22:44:02.273Z,97357.97
2023-01-19T22:46:32.472Z,97365.28
2023-01-19T22:49:01.441Z,97359.81
2023-01-19T22:51:31.183Z,97363.69
2023-01-19T22:53:59.803Z,97362.47
2023-01-19T22:56:31.212Z,97362.91
2023-01-19T22:59:01.336Z,97362.69
2023-01-19T23:01:32.368Z,97354.38
2023-01-19T23:04:00.670Z,97367.19
2023-01-19T23:06:30.645Z,97359.25
2023-01-19T23:09:00.509Z,97361.66
2023-01-19T23:11:31.079Z,97352.94
2023-01-19T23:13:59.647Z,97361.47
2023-01-19T23:16:27.851Z,97364.13
2023-01-19T23:18:57.085Z,97364.31
2023-01-19T23:21:27.417Z,97356.59
2023-01-19T23:23:56.738Z,97358.63
2023-01-19T23:26:26.205Z,97360.47
2023-01-19T23:28:57.986Z,97353.75
2023-01-19T23:31:27.512Z,97362.69
2023-01-19T23:33:57.977Z,97366.34
2023-01-19T23:36:27.741Z,97369.41
2023-01-19T23:38:58.116Z,97365.94
2023-01-19T23:41:28.076Z,97365.50
2023-01-19T23:43:58.070Z,97366.94
2023-01-19T23:46:26.450Z,97374.25
2023-01-19T23:48:55.185Z,97383.81
2023-01-19T23:51:25.696Z,97376.88
2023-01-19T23:53:54.381Z,97384.19
2023-01-19T23:56:25.172Z,97387.44
2023-01-19T23:58:55.006Z,97391.09
